createdAt,value
2017-12-25T00:00:39.371Z,21.30
2017-12-25T00:03:06.932Z,21.32
2017-12-25T00:05:34.471Z,21.29
2017-12-25T00:08:02.044Z,21.27
2017-12-25T00:10:29.591Z,21.24
2017-12-25T00:12:57.139Z,21.23
2017-12-25T00:15:24.641Z,21.21
2017-12-25T00:17:52.194Z,21.21
2017-12-25T00:20:19.753Z,21.20
2017-12-25T00:22:47.283Z,21.21
2017-12-25T00:25:14.822Z,21.21
2017-12-25T00:27:42.363Z,21.22
2017-12-25T00:30:09.963Z,21.21
2017-12-25T00:32:37.441Z,21.19
2017-12-25T00:35:04.921Z,21.18
2017-12-25T00:37:32.421Z,21.17
2017-12-25T00:39:59.893Z,21.18
2017-12-25T00:42:27.439Z,21.18
2017-12-25T00:44:54.949Z,21.19
2017-12-25T00:47:22.427Z,21.21
2017-12-25T00:49:49.900Z,21.19
2017-12-25T00:52:17.482Z,21.17
2017-12-25T00:54:45.020Z,21.14
2017-12-25T00:57:12.489Z,21.14
2017-12-25T00:59:40.063Z,21.13
2017-12-25T01:02:07.541Z,21.14
2017-12-25T01:04:35.084Z,21.15
2017-12-25T01:07:02.591Z,21.16
2017-12-25T01:09:30.067Z,21.16
2017-12-25T01:11:57.611Z,21.14
2017-12-25T01:14:25.119Z,21.11
2017-12-25T01:16:52.600Z,21.11
2017-12-25T01:19:20.082Z,21.11
2017-12-25T01:21:47.659Z,21.11
2017-12-25T01:24:15.204Z,21.14
2017-12-25T01:26:42.674Z,21.16
2017-12-25T01:29:10.187Z,21.16
2017-12-25T01:31:37.665Z,21.14
2017-12-25T01:34:05.143Z,21.13
2017-12-25T01:36:32.654Z,21.13
2017-12-25T01:39:00.130Z,21.11
2017-12-25T01:41:27.672Z,21.11
2017-12-25T01:43:55.178Z,21.12
2017-12-25T01:46:22.653Z,21.14
2017-12-25T01:48:50.191Z,21.15
2017-12-25T01:51:17.779Z,21.13
2017-12-25T01:53:45.270Z,21.11
2017-12-25T01:56:23.083Z,21.09
2017-12-25T01:58:53.245Z,21.09
2017-12-25T02:01:30.741Z,21.10
2017-12-25T02:03:58.304Z,21.11
2017-12-25T02:06:37.739Z,21.12
2017-12-25T02:09:05.213Z,21.13
2017-12-25T02:11:32.759Z,21.11
2017-12-25T02:14:00.341Z,21.09
2017-12-25T02:16:27.882Z,21.07
2017-12-25T02:18:55.431Z,21.06
2017-12-25T02:21:23.003Z,21.06
2017-12-25T02:23:50.543Z,21.06
2017-12-25T02:26:18.028Z,21.07
2017-12-25T02:28:45.533Z,21.08
2017-12-25T02:31:13.075Z,21.10
2017-12-25T02:33:40.550Z,21.09
2017-12-25T02:36:08.062Z,21.06
2017-12-25T02:38:35.610Z,21.05
2017-12-25T02:41:03.087Z,21.03
2017-12-25T02:43:30.594Z,21.03
2017-12-25T02:45:58.138Z,21.03
2017-12-25T02:48:25.617Z,21.05
2017-12-25T02:50:53.205Z,21.08
2017-12-25T02:53:20.681Z,21.07
2017-12-25T02:55:48.158Z,21.07
2017-12-25T02:58:15.677Z,21.05
2017-12-25T03:00:43.230Z,21.05
2017-12-25T03:03:10.769Z,21.03
2017-12-25T03:05:38.285Z,21.05
2017-12-25T03:08:05.761Z,21.08
2017-12-25T03:10:33.248Z,21.09
2017-12-25T03:13:00.770Z,21.09
2017-12-25T03:15:28.320Z,21.08
2017-12-25T03:17:55.859Z,21.07
2017-12-25T03:20:23.435Z,21.05
2017-12-25T03:22:50.979Z,21.04
2017-12-25T03:25:18.461Z,21.03
2017-12-25T03:27:46.048Z,21.05
2017-12-25T03:30:13.600Z,21.06
2017-12-25T03:32:41.149Z,21.08
2017-12-25T03:35:08.758Z,21.08
2017-12-25T03:37:36.303Z,21.06
2017-12-25T03:40:03.849Z,21.06
2017-12-25T03:42:31.433Z,21.04
2017-12-25T03:44:58.909Z,21.03
2017-12-25T03:47:26.459Z,21.04
2017-12-25T03:49:54.033Z,21.05
2017-12-25T03:52:21.509Z,21.05
2017-12-25T03:54:49.060Z,21.06
2017-12-25T03:57:16.574Z,21.07
2017-12-25T03:59:44.058Z,21.05
2017-12-25T04:02:11.541Z,21.03
2017-12-25T04:04:39.065Z,21.00
2017-12-25T04:07:06.620Z,20.99
2017-12-25T04:09:34.173Z,20.99
2017-12-25T04:12:01.681Z,21.01
2017-12-25T04:14:29.232Z,21.01
2017-12-25T04:16:56.775Z,21.03
2017-12-25T04:19:24.292Z,21.04
2017-12-25T04:21:51.773Z,21.02
2017-12-25T04:24:19.254Z,21.00
2017-12-25T04:26:46.769Z,20.99
2017-12-25T04:29:14.250Z,21.00
2017-12-25T04:31:41.731Z,20.99
2017-12-25T04:34:09.307Z,21.02
2017-12-25T04:36:36.785Z,21.00
2017-12-25T04:39:04.270Z,20.96
2017-12-25T04:41:31.781Z,20.93
2017-12-25T04:43:59.258Z,20.91
2017-12-25T04:46:26.740Z,20.88
2017-12-25T04:48:54.250Z,20.91
2017-12-25T04:51:21.799Z,20.93
2017-12-25T04:53:49.281Z,20.94
2017-12-25T04:56:16.868Z,20.97
2017-12-25T04:58:44.347Z,20.97
2017-12-25T05:01:11.828Z,20.96
2017-12-25T05:03:39.413Z,20.94
2017-12-25T05:06:06.959Z,20.94
2017-12-25T05:08:34.444Z,20.96
2017-12-25T05:11:02.033Z,20.97
2017-12-25T05:13:29.575Z,20.99
2017-12-25T05:15:57.054Z,20.99
2017-12-25T05:18:24.566Z,20.97
2017-12-25T05:20:52.116Z,20.94
2017-12-25T05:23:19.601Z,20.93
2017-12-25T05:25:47.110Z,20.92
2017-12-25T05:28:14.661Z,20.93
2017-12-25T05:30:42.349Z,20.94
2017-12-25T05:33:09.948Z,20.96
2017-12-25T05:35:37.427Z,20.98
2017-12-25T05:38:04.971Z,20.97
2017-12-25T05:40:32.488Z,20.95
2017-12-25T05:42:59.970Z,20.95
2017-12-25T05:45:27.524Z,20.95
2017-12-25T05:47:55.099Z,20.96
2017-12-25T05:50:22.583Z,20.97
2017-12-25T05:52:50.062Z,20.99
2017-12-25T05:55:17.651Z,20.98
2017-12-25T05:57:45.141Z,20.97
2017-12-25T06:00:12.687Z,20.96
2017-12-25T06:02:40.275Z,20.95
2017-12-25T06:05:07.820Z,20.95
2017-12-25T06:07:35.302Z,20.96
2017-12-25T06:10:02.812Z,20.96
2017-12-25T06:12:30.361Z,20.95
2017-12-25T06:14:57.916Z,20.96
2017-12-25T06:17:25.438Z,20.98
2017-12-25T06:19:52.987Z,20.99
2017-12-25T06:22:20.469Z,21.03
2017-12-25T06:24:48.076Z,21.07
2017-12-25T06:27:15.624Z,21.11
2017-12-25T06:29:43.184Z,21.18
2017-12-25T06:32:10.771Z,21.25
2017-12-25T06:34:38.324Z,21.33
2017-12-25T06:37:05.811Z,21.40
2017-12-25T06:39:33.399Z,21.44
2017-12-25T06:42:00.967Z,21.52
2017-12-25T06:44:28.450Z,21.62
2017-12-25T06:46:56.038Z,21.78
2017-12-25T06:49:23.592Z,21.90
2017-12-25T06:51:51.094Z,22.03
2017-12-25T06:54:18.681Z,22.14
2017-12-25T06:56:46.166Z,22.27
2017-12-25T06:59:13.648Z,22.34
2017-12-25T07:01:41.236Z,22.41
2017-12-25T07:04:08.721Z,22.44
2017-12-25T07:06:36.275Z,22.51
2017-12-25T07:09:03.893Z,22.55
2017-12-25T07:11:31.457Z,22.56
2017-12-25T07:13:59.015Z,22.54
2017-12-25T07:16:26.612Z,22.53
2017-12-25T07:18:54.165Z,22.52
2017-12-25T07:21:21.728Z,22.53
2017-12-25T07:23:49.331Z,22.52
2017-12-25T07:26:16.892Z,22.50
2017-12-25T07:28:44.818Z,22.47
2017-12-25T07:31:12.414Z,22.45
2017-12-25T07:33:39.895Z,22.43
2017-12-25T07:36:07.452Z,22.41
2017-12-25T07:38:34.993Z,22.40
2017-12-25T07:41:02.485Z,22.39
2017-12-25T07:43:30.036Z,22.39
2017-12-25T07:45:57.555Z,22.40
2017-12-25T07:48:25.043Z,22.38
2017-12-25T07:50:52.602Z,22.35
2017-12-25T07:53:20.114Z,22.32
2017-12-25T07:55:47.598Z,22.28
2017-12-25T07:58:15.154Z,22.25
2017-12-25T08:00:42.746Z,22.28
2017-12-25T08:03:10.304Z,22.30
2017-12-25T08:05:37.790Z,22.34
2017-12-25T08:08:05.376Z,22.34
2017-12-25T08:10:32.936Z,22.33
2017-12-25T08:13:00.427Z,22.35
2017-12-25T08:15:27.955Z,22.33
2017-12-25T08:17:55.463Z,22.36
2017-12-25T08:20:23.019Z,22.39
2017-12-25T08:22:50.588Z,22.42
2017-12-25T08:25:18.136Z,22.44
2017-12-25T08:27:45.698Z,22.48
2017-12-25T08:30:13.227Z,22.49
2017-12-25T08:32:40.782Z,22.54
2017-12-25T08:35:08.279Z,22.60
2017-12-25T08:37:35.865Z,22.65
2017-12-25T08:40:03.343Z,22.66
2017-12-25T08:42:30.831Z,22.68
2017-12-25T08:44:58.351Z,22.68
2017-12-25T08:47:25.928Z,22.68
2017-12-25T08:49:53.483Z,22.65
2017-12-25T08:52:21.059Z,22.62
2017-12-25T08:54:48.557Z,22.59
2017-12-25T08:57:16.120Z,22.58
2017-12-25T08:59:43.708Z,22.53
2017-12-25T09:02:11.276Z,22.50
2017-12-25T09:04:38.830Z,22.50
2017-12-25T09:07:06.423Z,22.53
2017-12-25T09:09:34.026Z,22.56
2017-12-25T09:12:01.564Z,22.57
2017-12-25T09:14:29.189Z,22.58
2017-12-25T09:16:56.680Z,22.59
2017-12-25T09:19:24.172Z,22.59
2017-12-25T09:21:51.695Z,22.60
2017-12-25T09:24:19.178Z,22.60
2017-12-25T09:26:46.659Z,22.61
2017-12-25T09:29:14.252Z,22.62
2017-12-25T09:31:41.736Z,22.63
2017-12-25T09:34:09.300Z,22.65
2017-12-25T09:36:36.907Z,22.65
2017-12-25T09:39:04.418Z,22.63
2017-12-25T09:41:31.914Z,22.62
2017-12-25T09:43:59.507Z,22.62
2017-12-25T09:46:27.070Z,22.62
2017-12-25T09:48:54.561Z,22.64
2017-12-25T09:51:22.086Z,22.65
2017-12-25T09:53:49.639Z,22.63
2017-12-25T09:56:17.203Z,22.63
2017-12-25T09:58:44.782Z,22.63
2017-12-25T10:01:12.264Z,22.66
2017-12-25T10:03:39.815Z,22.67
2017-12-25T10:06:07.343Z,22.69
2017-12-25T10:08:34.911Z,22.69
2017-12-25T10:11:02.437Z,22.66
2017-12-25T10:13:30.012Z,22.65
2017-12-25T10:15:57.497Z,22.65
2017-12-25T10:18:25.066Z,22.67
2017-12-25T10:20:52.594Z,22.67
2017-12-25T10:23:20.167Z,22.69
2017-12-25T10:25:47.733Z,22.68
2017-12-25T10:28:15.259Z,22.68
2017-12-25T10:30:42.815Z,22.68
2017-12-25T10:33:10.410Z,22.69
2017-12-25T10:35:37.930Z,22.68
2017-12-25T10:38:05.424Z,22.69
2017-12-25T10:40:32.979Z,22.71
2017-12-25T10:43:00.573Z,22.71
2017-12-25T10:45:28.057Z,22.69
2017-12-25T10:47:55.620Z,22.67
2017-12-25T10:50:23.135Z,22.67
2017-12-25T10:52:50.694Z,22.64
2017-12-25T10:55:18.233Z,22.64
2017-12-25T10:57:45.766Z,22.63
2017-12-25T11:00:13.274Z,22.61
2017-12-25T11:02:40.758Z,22.64
2017-12-25T11:05:08.358Z,22.65
2017-12-25T11:07:35.862Z,22.66
2017-12-25T11:10:03.367Z,22.64
2017-12-25T11:12:30.895Z,22.63
2017-12-25T11:14:58.460Z,22.63
2017-12-25T11:17:26.019Z,22.67
2017-12-25T11:19:53.610Z,22.65
2017-12-25T11:22:21.109Z,22.62
2017-12-25T11:24:48.610Z,22.57
2017-12-25T11:27:16.196Z,22.52
2017-12-25T11:29:43.700Z,22.51
2017-12-25T11:32:11.190Z,22.51
2017-12-25T11:34:38.788Z,22.50
2017-12-25T11:37:06.351Z,22.50
2017-12-25T11:39:33.838Z,22.50
2017-12-25T11:42:01.444Z,22.51
2017-12-25T11:44:29.005Z,22.51
2017-12-25T11:46:56.498Z,22.55
2017-12-25T11:49:24.096Z,22.52
2017-12-25T11:51:51.647Z,22.51
2017-12-25T11:54:19.212Z,22.44
2017-12-25T11:56:46.738Z,22.42
2017-12-25T11:59:14.296Z,22.38
2017-12-25T12:01:41.913Z,22.40
2017-12-25T12:04:09.521Z,22.40
2017-12-25T12:06:37.015Z,22.44
2017-12-25T12:09:04.623Z,22.51
2017-12-25T12:11:32.146Z,22.51
2017-12-25T12:13:59.630Z,22.53
2017-12-25T12:16:27.180Z,22.48
2017-12-25T12:18:54.775Z,22.41
2017-12-25T12:21:22.261Z,22.37
2017-12-25T12:23:49.817Z,22.36
2017-12-25T12:26:17.467Z,22.35
2017-12-25T12:28:44.949Z,22.35
2017-12-25T12:31:12.434Z,22.37
2017-12-25T12:33:39.958Z,22.45
2017-12-25T12:36:07.528Z,22.45
2017-12-25T12:38:35.091Z,22.38
2017-12-25T12:41:02.688Z,22.32
2017-12-25T12:43:30.256Z,22.26
2017-12-25T12:45:57.746Z,22.22
2017-12-25T12:48:25.293Z,22.19
2017-12-25T12:50:52.786Z,22.19
2017-12-25T12:53:20.270Z,22.16
2017-12-25T12:55:47.854Z,22.15
2017-12-25T12:58:15.371Z,22.12
2017-12-25T13:00:42.881Z,22.14
2017-12-25T13:03:10.445Z,22.13
2017-12-25T13:05:37.942Z,22.11
2017-12-25T13:08:05.447Z,22.11
2017-12-25T13:10:33.035Z,22.10
2017-12-25T13:13:00.527Z,22.10
2017-12-25T13:15:28.025Z,22.06
2017-12-25T13:17:55.562Z,22.03
2017-12-25T13:20:23.135Z,22.04
2017-12-25T13:22:50.711Z,22.04
2017-12-25T13:25:18.233Z,22.10
2017-12-25T13:27:46.734Z,22.12
2017-12-25T13:30:14.320Z,22.11
2017-12-25T13:32:41.843Z,22.10
2017-12-25T13:35:09.420Z,22.08
2017-12-25T13:37:36.935Z,22.06
2017-12-25T13:40:04.462Z,22.05
2017-12-25T13:42:31.959Z,22.04
2017-12-25T13:44:59.533Z,22.05
2017-12-25T13:47:27.261Z,22.02
2017-12-25T13:49:54.829Z,22.04
2017-12-25T13:52:22.334Z,22.05
2017-12-25T13:54:49.875Z,22.07
2017-12-25T13:57:17.386Z,22.05
2017-12-25T13:59:44.978Z,22.05
2017-12-25T14:02:12.590Z,22.05
2017-12-25T14:04:40.462Z,22.06
2017-12-25T14:07:07.994Z,22.07
2017-12-25T14:09:35.599Z,22.05
2017-12-25T14:12:03.086Z,22.03
2017-12-25T14:14:30.656Z,22.02
2017-12-25T14:16:58.248Z,22.03
2017-12-25T14:19:25.817Z,22.02
2017-12-25T14:21:53.383Z,22.02
2017-12-25T14:24:20.972Z,22.01
2017-12-25T14:26:48.540Z,22.00
2017-12-25T14:29:16.038Z,22.00
2017-12-25T14:31:43.554Z,22.02
2017-12-25T14:34:11.111Z,22.01
2017-12-25T14:36:38.601Z,21.98
2017-12-25T14:39:06.188Z,21.79
2017-12-25T14:41:33.754Z,21.43
2017-12-25T14:44:01.246Z,21.18
2017-12-25T14:46:28.782Z,20.91
2017-12-25T14:48:56.319Z,20.62
2017-12-25T14:51:23.810Z,20.29
2017-12-25T14:53:51.322Z,20.12
2017-12-25T14:56:18.875Z,20.10
2017-12-25T14:58:46.369Z,20.20
2017-12-25T15:01:13.964Z,20.32
2017-12-25T15:03:41.455Z,20.49
2017-12-25T15:06:09.039Z,20.62
2017-12-25T15:08:36.558Z,20.73
2017-12-25T15:11:04.131Z,20.82
2017-12-25T15:13:31.687Z,20.91
2017-12-25T15:15:59.277Z,20.98
2017-12-25T15:18:26.766Z,21.03
2017-12-25T15:20:54.323Z,21.07
2017-12-25T15:23:21.846Z,21.11
2017-12-25T15:25:49.334Z,21.16
2017-12-25T15:28:16.831Z,21.19
2017-12-25T15:30:44.370Z,21.22
2017-12-25T15:33:11.873Z,21.25
2017-12-25T15:35:39.434Z,21.31
2017-12-25T15:38:07.023Z,21.40
2017-12-25T15:40:34.580Z,21.35
2017-12-25T15:43:02.092Z,21.44
2017-12-25T15:45:29.625Z,21.49
2017-12-25T15:47:57.194Z,21.52
2017-12-25T15:50:24.749Z,21.52
2017-12-25T15:52:52.274Z,21.53
2017-12-25T15:55:19.761Z,21.54
2017-12-25T15:57:47.250Z,21.56
2017-12-25T16:00:14.839Z,21.57
2017-12-25T16:02:42.388Z,21.58
2017-12-25T16:05:09.886Z,21.60
2017-12-25T16:07:37.406Z,21.62
2017-12-25T16:10:04.964Z,21.64
2017-12-25T16:12:32.451Z,21.64
2017-12-25T16:14:59.982Z,21.64
2017-12-25T16:17:27.466Z,21.63
2017-12-25T16:19:55.020Z,21.61
2017-12-25T16:22:22.611Z,21.64
2017-12-25T16:24:50.188Z,21.64
2017-12-25T16:27:17.696Z,21.64
2017-12-25T16:29:45.218Z,21.66
2017-12-25T16:32:12.783Z,21.66
2017-12-25T16:34:40.311Z,21.70
2017-12-25T16:37:07.826Z,21.97
2017-12-25T16:39:35.318Z,22.33
2017-12-25T16:42:02.867Z,22.70
2017-12-25T16:44:30.571Z,23.01
2017-12-25T16:46:58.144Z,23.24
2017-12-25T16:49:25.651Z,23.41
2017-12-25T16:51:53.255Z,23.60
2017-12-25T16:54:20.819Z,23.71
2017-12-25T16:56:48.380Z,23.81
2017-12-25T16:59:15.889Z,23.78
2017-12-25T17:01:43.451Z,23.71
2017-12-25T17:04:10.938Z,23.49
2017-12-25T17:06:38.469Z,23.51
2017-12-25T17:09:05.964Z,23.41
2017-12-25T17:11:33.529Z,23.34
2017-12-25T17:14:01.063Z,23.27
2017-12-25T17:16:28.546Z,23.13
2017-12-25T17:18:56.113Z,23.01
2017-12-25T17:21:23.934Z,22.97
2017-12-25T17:23:51.523Z,22.92
2017-12-25T17:26:19.078Z,22.82
2017-12-25T17:28:46.674Z,22.73
2017-12-25T17:31:14.241Z,22.62
2017-12-25T17:33:41.732Z,22.48
2017-12-25T17:36:09.261Z,22.43
2017-12-25T17:38:36.818Z,22.39
2017-12-25T17:41:04.334Z,22.35
2017-12-25T17:43:31.863Z,22.31
2017-12-25T17:45:59.415Z,22.28
2017-12-25T17:48:26.910Z,22.17
2017-12-25T17:50:54.496Z,22.12
2017-12-25T17:53:21.981Z,22.10
2017-12-25T17:55:49.467Z,22.05
2017-12-25T17:58:16.994Z,21.98
2017-12-25T18:00:44.502Z,21.89
2017-12-25T18:03:12.002Z,21.88
2017-12-25T18:05:39.595Z,21.89
2017-12-25T18:08:07.081Z,21.87
2017-12-25T18:10:34.570Z,21.85
2017-12-25T18:13:02.248Z,21.84
2017-12-25T18:15:29.748Z,21.82
2017-12-25T18:17:57.251Z,21.73
2017-12-25T18:20:24.865Z,21.65
2017-12-25T18:22:52.357Z,21.58
2017-12-25T18:25:19.912Z,21.56
2017-12-25T18:27:47.578Z,21.50
2017-12-25T18:30:15.152Z,21.48
2017-12-25T18:32:42.643Z,21.48
2017-12-25T18:35:10.174Z,21.45
2017-12-25T18:37:37.735Z,21.45
2017-12-25T18:40:05.319Z,21.41
2017-12-25T18:42:32.834Z,21.41
2017-12-25T18:45:00.392Z,21.41
2017-12-25T18:47:27.948Z,21.42
2017-12-25T18:49:55.528Z,21.41
2017-12-25T18:52:23.091Z,21.42
2017-12-25T18:54:50.680Z,21.42
2017-12-25T18:57:18.239Z,21.43
2017-12-25T18:59:45.737Z,21.40
2017-12-25T19:02:13.336Z,21.37
2017-12-25T19:04:40.876Z,21.36
2017-12-25T19:07:08.451Z,21.36
2017-12-25T19:09:35.982Z,21.35
2017-12-25T19:12:03.551Z,21.34
2017-12-25T19:14:31.149Z,21.33
2017-12-25T19:16:58.686Z,21.31
2017-12-25T19:19:26.267Z,21.32
2017-12-25T19:21:53.758Z,21.30
2017-12-25T19:24:22.189Z,21.26
2017-12-25T19:26:49.757Z,21.25
2017-12-25T19:29:17.262Z,21.26
2017-12-25T19:31:44.909Z,21.23
2017-12-25T19:34:12.402Z,21.25
2017-12-25T19:36:39.987Z,21.25
2017-12-25T19:39:07.609Z,21.26
2017-12-25T19:41:35.171Z,21.27
2017-12-25T19:44:02.666Z,21.28
2017-12-25T19:46:30.190Z,21.37
2017-12-25T19:48:57.743Z,21.36
2017-12-25T19:51:25.303Z,21.30
2017-12-25T19:53:52.888Z,21.27
2017-12-25T19:56:20.455Z,21.24
2017-12-25T19:58:48.011Z,21.27
2017-12-25T20:01:15.600Z,21.27
2017-12-25T20:03:43.094Z,21.32
2017-12-25T20:06:10.656Z,21.35
2017-12-25T20:08:38.178Z,21.31
2017-12-25T20:11:05.678Z,21.30
2017-12-25T20:13:33.241Z,21.31
2017-12-25T20:16:00.757Z,21.32
2017-12-25T20:18:28.261Z,21.34
2017-12-25T20:20:55.742Z,21.39
2017-12-25T20:23:23.331Z,21.37
2017-12-25T20:25:50.818Z,21.31
2017-12-25T20:28:18.333Z,21.34
2017-12-25T20:30:45.920Z,21.37
2017-12-25T20:33:13.471Z,21.40
2017-12-25T20:35:40.963Z,21.40
2017-12-25T20:38:08.549Z,21.44
2017-12-25T20:40:36.038Z,21.41
2017-12-25T20:43:03.592Z,21.34
2017-12-25T20:45:31.111Z,21.32
2017-12-25T20:47:58.676Z,21.33
2017-12-25T20:50:26.240Z,21.34
2017-12-25T20:52:53.773Z,21.36
2017-12-25T20:55:21.331Z,21.33
2017-12-25T20:57:48.889Z,21.34
2017-12-25T21:00:16.502Z,21.32
2017-12-25T21:02:43.989Z,21.32
2017-12-25T21:05:11.539Z,21.35
2017-12-25T21:07:39.058Z,21.36
2017-12-25T21:10:06.545Z,21.39
2017-12-25T21:12:34.098Z,21.35
2017-12-25T21:15:01.638Z,21.30
2017-12-25T21:17:29.219Z,21.26
2017-12-25T21:19:56.774Z,21.22
2017-12-25T21:22:24.372Z,21.19
2017-12-25T21:24:51.950Z,21.16
2017-12-25T21:27:19.440Z,21.14
2017-12-25T21:29:46.954Z,21.12
2017-12-25T21:32:14.503Z,21.12
2017-12-25T21:34:41.986Z,21.13
2017-12-25T21:37:09.566Z,21.16
2017-12-25T21:39:37.115Z,21.14
2017-12-25T21:42:04.672Z,21.09
2017-12-25T21:44:32.263Z,21.11
2017-12-25T21:46:59.819Z,21.13
2017-12-25T21:49:27.339Z,21.16
2017-12-25T21:51:54.930Z,21.20
2017-12-25T21:54:22.414Z,21.25
2017-12-25T21:56:49.899Z,21.21
2017-12-25T21:59:17.488Z,21.18
2017-12-25T22:01:45.035Z,21.15
2017-12-25T22:04:12.583Z,21.15
2017-12-25T22:06:40.112Z,21.14
2017-12-25T22:09:07.663Z,21.14
2017-12-25T22:11:35.158Z,21.15
2017-12-25T22:14:02.685Z,21.17
2017-12-25T22:16:30.231Z,21.20
2017-12-25T22:18:57.721Z,21.19
2017-12-25T22:21:25.245Z,21.18
2017-12-25T22:23:52.732Z,21.15
2017-12-25T22:26:20.288Z,21.16
2017-12-25T22:28:47.868Z,21.17
2017-12-25T22:31:15.357Z,21.18
2017-12-25T22:33:42.842Z,21.21
2017-12-25T22:36:10.354Z,21.22
2017-12-25T22:38:37.903Z,21.20
2017-12-25T22:41:05.394Z,21.15
2017-12-25T22:43:32.975Z,21.14
2017-12-25T22:46:00.458Z,21.12
2017-12-25T22:48:27.945Z,21.10
2017-12-25T22:50:55.466Z,21.10
2017-12-25T22:53:22.945Z,21.10
2017-12-25T22:55:50.435Z,21.11
2017-12-25T22:58:18.027Z,21.12
2017-12-25T23:00:45.580Z,21.08
2017-12-25T23:03:13.180Z,21.06
2017-12-25T23:05:40.698Z,21.03
2017-12-25T23:08:08.188Z,21.02
2017-12-25T23:10:35.669Z,21.03
2017-12-25T23:13:03.186Z,21.04
2017-12-25T23:15:30.676Z,21.04
2017-12-25T23:17:58.229Z,21.07
2017-12-25T23:20:25.771Z,21.06
2017-12-25T23:22:53.323Z,21.02
2017-12-25T23:25:20.809Z,21.00
2017-12-25T23:27:48.388Z,20.99
2017-12-25T23:30:15.875Z,20.97
2017-12-25T23:32:43.358Z,20.98
2017-12-25T23:35:10.939Z,20.97
2017-12-25T23:37:38.429Z,20.98
2017-12-25T23:40:05.914Z,20.99
2017-12-25T23:42:33.435Z,21.02
2017-12-25T23:45:00.991Z,20.98
2017-12-25T23:47:28.546Z,20.96
2017-12-25T23:49:56.104Z,20.93
2017-12-25T23:52:23.594Z,20.93
2017-12-25T23:54:51.118Z,20.93
2017-12-25T23:57:18.618Z,20.92
2017-12-25T23:59:46.101Z,20.93
